createdAt,value
2022-11-21T00:01:18.308Z,99214.91
2022-11-21T00:03:46.701Z,99212.16
2022-11-21T00:06:14.574Z,99213.94
2022-11-21T00:08:42.218Z,99216.47
2022-11-21T00:11:09.861Z,99206.25
2022-11-21T00:13:37.854Z,99195.91
2022-11-21T00:16:06.139Z,99211.34
2022-11-21T00:18:36.255Z,99204.69
2022-11-21T00:21:07.661Z,99198.81
2022-11-21T00:23:36.321Z,99199.91
2022-11-21T00:26:08.322Z,99206.72
2022-11-21T00:28:36.427Z,99194.00
2022-11-21T00:31:05.036Z,99193.22
2022-11-21T00:33:32.801Z,99195.81
2022-11-21T00:36:07.248Z,99191.66
2022-11-21T00:38:34.825Z,99179.94
2022-11-21T00:41:02.453Z,99181.75
2022-11-21T00:43:30.148Z,99191.22
2022-11-21T00:45:59.382Z,99203.25
2022-11-21T00:48:26.975Z,99190.59
2022-11-21T00:50:54.616Z,99183.84
2022-11-21T00:53:23.728Z,99183.91
2022-11-21T00:55:51.281Z,99194.13
2022-11-21T00:58:18.943Z,99185.47
2022-11-21T01:00:46.664Z,99189.66
2022-11-21T01:03:14.329Z,99197.28
2022-11-21T01:05:41.978Z,99199.97
2022-11-21T01:08:09.572Z,99198.13
2022-11-21T01:10:38.593Z,99215.59
2022-11-21T01:13:06.248Z,99193.50
2022-11-21T01:15:34.845Z,99191.66
2022-11-21T01:18:02.492Z,99203.47
2022-11-21T01:20:30.147Z,99201.38
2022-11-21T01:22:57.761Z,99210.41
2022-11-21T01:25:25.321Z,99188.84
2022-11-21T01:27:54.256Z,99188.81
2022-11-21T01:30:21.850Z,99182.72
2022-11-21T01:32:50.346Z,99188.69
2022-11-21T01:35:18.422Z,99184.56
2022-11-21T01:37:47.872Z,99176.06
2022-11-21T01:40:15.888Z,99174.44
2022-11-21T01:43:02.825Z,99172.81
2022-11-21T01:45:54.076Z,99170.25
2022-11-21T01:48:27.061Z,99168.69
2022-11-21T01:50:56.379Z,99163.34
2022-11-21T01:53:24.482Z,99165.06
2022-11-21T01:55:52.737Z,99162.72
2022-11-21T01:58:22.593Z,99158.66
2022-11-21T02:00:51.229Z,99154.44
2022-11-21T02:03:25.786Z,99145.06
2022-11-21T02:05:55.327Z,99145.69
2022-11-21T02:08:26.711Z,99143.34
2022-11-21T02:11:05.300Z,99139.16
2022-11-21T02:13:34.348Z,99150.91
2022-11-21T02:16:02.974Z,99150.06
2022-11-21T02:18:30.688Z,99151.78
2022-11-21T02:21:04.217Z,99153.56
2022-11-21T02:23:41.206Z,99158.72
2022-11-21T02:26:11.292Z,99166.44
2022-11-21T02:28:38.898Z,99136.66
2022-11-21T02:31:06.501Z,99140.09
2022-11-21T02:33:34.127Z,99140.09
2022-11-21T02:36:03.201Z,99146.88
2022-11-21T02:38:34.526Z,99143.50
2022-11-21T02:41:08.095Z,99146.06
2022-11-21T02:43:43.478Z,99138.38
2022-11-21T02:46:11.232Z,99135.84
2022-11-21T02:48:39.140Z,99141.81
2022-11-21T02:51:06.755Z,99141.97
2022-11-21T02:53:34.528Z,99145.47
2022-11-21T02:56:02.368Z,99147.25
2022-11-21T02:58:30.308Z,99133.75
2022-11-21T03:00:59.395Z,99134.41
2022-11-21T03:03:27.134Z,99127.59
2022-11-21T03:05:55.324Z,99125.09
2022-11-21T03:08:22.895Z,99123.44
2022-11-21T03:10:50.541Z,99115.94
2022-11-21T03:13:18.134Z,99119.50
2022-11-21T03:15:45.729Z,99110.97
2022-11-21T03:18:14.685Z,99110.94
2022-11-21T03:20:42.283Z,99105.81
2022-11-21T03:23:10.009Z,99127.16
2022-11-21T03:25:37.640Z,99111.81
2022-11-21T03:28:05.565Z,99104.97
2022-11-21T03:30:33.170Z,99111.09
2022-11-21T03:33:00.810Z,99105.03
2022-11-21T03:35:29.795Z,99102.47
2022-11-21T03:37:57.398Z,99102.59
2022-11-21T03:40:25.101Z,99101.88
2022-11-21T03:42:52.756Z,99099.28
2022-11-21T03:45:20.415Z,99096.00
2022-11-21T03:47:48.056Z,99107.00
2022-11-21T03:50:18.876Z,99093.31
2022-11-21T03:52:48.027Z,99104.47
2022-11-21T03:55:16.156Z,99103.00
2022-11-21T03:57:43.850Z,99094.44
2022-11-21T04:00:12.828Z,99102.16
2022-11-21T04:02:40.579Z,99115.16
2022-11-21T04:05:08.639Z,99115.94
2022-11-21T04:07:36.411Z,99109.09
2022-11-21T04:10:05.884Z,99117.53
2022-11-21T04:12:33.426Z,99121.88
2022-11-21T04:15:01.029Z,99109.09
2022-11-21T04:17:28.599Z,99127.69
2022-11-21T04:19:56.244Z,99109.94
2022-11-21T04:22:23.892Z,99108.38
2022-11-21T04:24:51.539Z,99106.78
2022-11-21T04:27:20.475Z,99095.66
2022-11-21T04:29:48.113Z,99103.28
2022-11-21T04:32:15.756Z,99107.53
2022-11-21T04:34:43.347Z,99104.81
2022-11-21T04:37:11.863Z,99104.13
2022-11-21T04:39:39.576Z,99104.00
2022-11-21T04:42:07.226Z,99104.91
2022-11-21T04:44:36.168Z,99111.50
2022-11-21T04:47:05.515Z,99110.69
2022-11-21T04:49:33.648Z,99110.78
2022-11-21T04:52:01.291Z,99115.75
2022-11-21T04:54:29.184Z,99117.47
2022-11-21T04:56:57.221Z,99114.66
2022-11-21T04:59:24.878Z,99101.81
2022-11-21T05:01:53.785Z,99108.56
2022-11-21T05:04:21.346Z,99111.09
2022-11-21T05:06:48.933Z,99119.34
2022-11-21T05:09:16.542Z,99113.63
2022-11-21T05:12:01.820Z,99116.00
2022-11-21T05:14:29.803Z,99118.56
2022-11-21T05:16:58.942Z,99106.69
2022-11-21T05:19:26.587Z,99115.00
2022-11-21T05:21:54.173Z,99108.75
2022-11-21T05:24:21.843Z,99097.47
2022-11-21T05:26:49.522Z,99104.97
2022-11-21T05:29:17.225Z,99105.72
2022-11-21T05:31:45.017Z,99109.97
2022-11-21T05:34:14.253Z,99108.41
2022-11-21T05:36:42.018Z,99121.13
2022-11-21T05:39:09.698Z,99119.41
2022-11-21T05:41:37.294Z,99125.53
2022-11-21T05:44:04.020Z,99123.09
2022-11-21T05:46:31.717Z,99112.34
2022-11-21T05:48:59.357Z,99116.75
2022-11-21T05:51:28.401Z,99124.47
2022-11-21T05:53:56.097Z,99120.31
2022-11-21T05:56:23.736Z,99099.91
2022-11-21T05:58:51.510Z,99100.88
2022-11-21T06:01:40.066Z,99093.06
2022-11-21T06:04:06.706Z,99094.59
2022-11-21T06:06:35.733Z,99099.50
2022-11-21T06:09:03.972Z,99101.16
2022-11-21T06:11:31.748Z,99102.72
2022-11-21T06:13:59.430Z,99111.25
2022-11-21T06:16:27.127Z,99111.13
2022-11-21T06:18:58.338Z,99114.53
2022-11-21T06:21:29.168Z,99119.47
2022-11-21T06:23:59.271Z,99120.34
2022-11-21T06:26:28.346Z,99114.28
2022-11-21T06:28:56.371Z,99117.75
2022-11-21T06:31:25.712Z,99109.41
2022-11-21T06:33:54.303Z,99109.25
2022-11-21T06:36:22.076Z,99102.22
2022-11-21T06:38:50.121Z,99104.88
2022-11-21T06:41:20.662Z,99104.06
2022-11-21T06:43:49.152Z,99113.31
2022-11-21T06:46:17.234Z,99119.22
2022-11-21T06:48:45.202Z,99120.09
2022-11-21T06:51:17.325Z,99124.44
2022-11-21T06:53:45.254Z,99165.41
2022-11-21T06:56:13.183Z,99132.47
2022-11-21T06:58:42.127Z,99124.66
2022-11-21T07:01:11.393Z,99123.91
2022-11-21T07:03:39.005Z,99135.03
2022-11-21T07:06:07.411Z,99122.34
2022-11-21T07:08:36.894Z,99129.13
2022-11-21T07:11:24.616Z,99119.66
2022-11-21T07:13:54.688Z,99121.38
2022-11-21T07:16:22.360Z,99125.00
2022-11-21T07:18:49.979Z,99124.91
2022-11-21T07:21:17.596Z,99124.88
2022-11-21T07:23:45.308Z,99121.66
2022-11-21T07:26:13.014Z,99119.97
2022-11-21T07:28:41.007Z,99127.91
2022-11-21T07:31:13.871Z,99117.66
2022-11-21T07:33:43.536Z,99116.09
2022-11-21T07:36:11.665Z,99122.09
2022-11-21T07:38:40.832Z,99110.97
2022-11-21T07:41:08.827Z,99113.78
2022-11-21T07:43:36.516Z,99113.03
2022-11-21T07:46:04.533Z,99116.25
2022-11-21T07:48:33.471Z,99122.34
2022-11-21T07:51:04.609Z,99128.31
2022-11-21T07:53:32.220Z,99124.84
2022-11-21T07:56:00.710Z,99131.69
2022-11-21T07:58:28.356Z,99124.13
2022-11-21T08:00:56.004Z,99112.09
2022-11-21T08:03:25.217Z,99128.31
2022-11-21T08:05:54.286Z,99118.41
2022-11-21T08:08:21.868Z,99117.72
2022-11-21T08:10:51.289Z,99117.84
2022-11-21T08:13:18.936Z,99127.44
2022-11-21T08:15:46.635Z,99113.00
2022-11-21T08:18:18.850Z,99117.19
2022-11-21T08:20:46.457Z,99116.66
2022-11-21T08:23:15.437Z,99112.28
2022-11-21T08:25:43.755Z,99102.06
2022-11-21T08:28:12.580Z,99113.53
2022-11-21T08:30:41.136Z,99105.81
2022-11-21T08:33:08.847Z,99110.00
2022-11-21T08:35:37.575Z,99107.50
2022-11-21T08:38:05.462Z,99100.72
2022-11-21T08:40:35.316Z,99095.06
2022-11-21T08:43:05.072Z,99097.78
2022-11-21T08:45:33.479Z,99098.50
2022-11-21T08:48:01.102Z,99092.59
2022-11-21T08:50:28.894Z,99091.56
2022-11-21T08:53:01.420Z,99086.66
2022-11-21T08:55:29.164Z,99083.09
2022-11-21T08:57:58.214Z,99076.22
2022-11-21T09:00:25.993Z,99078.88
2022-11-21T09:02:53.608Z,99080.38
2022-11-21T09:05:21.200Z,99078.72
2022-11-21T09:07:48.918Z,99087.41
2022-11-21T09:10:16.785Z,99080.75
2022-11-21T09:12:44.442Z,99085.03
2022-11-21T09:15:31.343Z,99076.19
2022-11-21T09:18:04.463Z,99084.72
2022-11-21T09:20:33.972Z,99088.22
2022-11-21T09:23:05.312Z,99091.13
2022-11-21T09:25:34.097Z,99103.41
2022-11-21T09:28:03.014Z,99094.00
2022-11-21T09:30:32.043Z,99097.06
2022-11-21T09:33:02.468Z,99079.22
2022-11-21T09:35:30.347Z,99076.09
2022-11-21T09:37:58.538Z,99074.28
2022-11-21T09:40:26.831Z,99070.97
2022-11-21T09:43:11.672Z,99069.38
2022-11-21T09:45:47.357Z,99050.22
2022-11-21T09:48:22.491Z,99046.06
2022-11-21T09:50:54.976Z,99045.56
2022-11-21T09:53:28.198Z,99040.56
2022-11-21T09:55:59.747Z,99035.69
2022-11-21T09:58:32.962Z,99035.59
2022-11-21T10:01:02.196Z,99037.66
2022-11-21T10:03:32.674Z,99030.75
2022-11-21T10:06:05.105Z,99021.41
2022-11-21T10:08:43.831Z,99021.78
2022-11-21T10:11:22.514Z,99022.03
2022-11-21T10:14:13.996Z,99012.72
2022-11-21T10:16:50.792Z,99017.84
2022-11-21T10:19:48.513Z,99016.91
2022-11-21T10:22:49.115Z,99004.94
2022-11-21T10:25:26.913Z,99000.78
2022-11-21T10:27:59.410Z,98987.16
2022-11-21T10:30:27.063Z,98985.94
2022-11-21T10:32:59.615Z,98965.47
2022-11-21T10:35:33.002Z,98965.81
2022-11-21T10:38:01.187Z,98957.00
2022-11-21T10:40:36.319Z,98956.38
2022-11-21T10:43:23.697Z,98960.53
2022-11-21T10:45:51.762Z,98947.53
2022-11-21T10:48:20.868Z,98947.06
2022-11-21T10:51:02.598Z,98932.44
2022-11-21T10:53:49.028Z,98931.59
2022-11-21T10:56:19.954Z,98913.38
2022-11-21T10:58:49.507Z,98917.81
2022-11-21T11:01:22.118Z,98900.78
2022-11-21T11:04:26.804Z,98901.69
2022-11-21T11:06:53.800Z,98893.13
2022-11-21T11:09:29.902Z,98891.44
2022-11-21T11:12:23.470Z,98884.53
2022-11-21T11:14:53.162Z,98878.53
2022-11-21T11:17:28.637Z,98875.94
2022-11-21T11:20:07.363Z,98866.50
2022-11-21T11:22:35.008Z,98862.16
2022-11-21T11:25:05.848Z,98860.34
2022-11-21T11:27:33.411Z,98863.00
2022-11-21T11:30:15.614Z,98854.31
2022-11-21T11:32:43.408Z,98841.34
2022-11-21T11:35:23.378Z,98830.50
2022-11-21T11:38:01.505Z,98829.56
2022-11-21T11:40:33.603Z,98833.16
2022-11-21T11:43:38.453Z,98826.41
2022-11-21T11:46:48.013Z,98824.75
2022-11-21T11:49:23.742Z,98823.69
2022-11-21T11:51:57.824Z,98813.44
2022-11-21T11:54:30.853Z,98811.75
2022-11-21T11:56:59.700Z,98825.81
2022-11-21T11:59:33.320Z,98814.69
2022-11-21T12:02:11.443Z,98805.91
2022-11-21T12:04:47.196Z,98809.34
2022-11-21T12:10:14.732Z,98791.31
2022-11-21T12:12:45.551Z,98780.56
2022-11-21T12:15:35.519Z,98775.13
2022-11-21T12:18:16.858Z,98767.22
2022-11-21T12:20:55.326Z,98763.50
2022-11-21T12:23:28.294Z,98764.59
2022-11-21T12:26:09.849Z,98763.09
2022-11-21T12:28:51.651Z,98743.53
2022-11-21T12:31:27.960Z,98727.09
2022-11-21T12:34:05.121Z,98727.56
2022-11-21T12:36:41.292Z,98734.72
2022-11-21T12:40:07.738Z,98729.03
2022-11-21T12:42:50.874Z,98731.09
2022-11-21T12:45:31.982Z,98719.31
2022-11-21T12:48:43.105Z,98708.78
2022-11-21T12:51:54.078Z,98698.03
2022-11-21T12:54:47.671Z,98693.34
2022-11-21T12:57:16.822Z,98694.75
2022-11-21T12:59:54.904Z,98683.28
2022-11-21T13:02:34.104Z,98688.75
2022-11-21T13:05:05.141Z,98676.81
2022-11-21T13:07:34.336Z,98677.09
2022-11-21T13:10:04.955Z,98666.69
2022-11-21T13:12:41.594Z,98661.31
2022-11-21T13:15:26.449Z,98659.50
2022-11-21T13:17:57.720Z,98647.59
2022-11-21T13:20:31.683Z,98648.03
2022-11-21T13:23:01.356Z,98650.81
2022-11-21T13:25:54.627Z,98647.06
2022-11-21T13:28:37.653Z,98638.38
2022-11-21T13:31:31.338Z,98641.03
2022-11-21T13:33:59.418Z,98632.28
2022-11-21T13:36:39.276Z,98623.59
2022-11-21T13:39:37.545Z,98634.81
2022-11-21T13:42:33.530Z,98619.72
2022-11-21T13:45:43.629Z,98613.53
2022-11-21T13:48:57.900Z,98609.44
2022-11-21T13:51:47.170Z,98602.22
2022-11-21T13:54:41.491Z,98598.81
2022-11-21T13:57:34.030Z,98590.13
2022-11-21T14:00:20.340Z,98593.41
2022-11-21T14:03:11.842Z,98588.28
2022-11-21T14:06:04.691Z,98585.56
2022-11-21T14:08:32.701Z,98578.59
2022-11-21T14:11:19.464Z,98576.13
2022-11-21T14:13:50.312Z,98568.47
2022-11-21T14:16:27.964Z,98564.19
2022-11-21T14:18:56.932Z,98556.72
2022-11-21T14:21:27.880Z,98557.56
2022-11-21T14:23:57.605Z,98547.25
2022-11-21T14:26:26.268Z,98533.47
2022-11-21T14:29:18.862Z,98524.09
2022-11-21T14:31:47.711Z,98512.91
2022-11-21T14:34:25.060Z,98510.38
2022-11-21T14:36:53.074Z,98512.19
2022-11-21T14:39:43.554Z,98503.63
2022-11-21T14:42:14.987Z,98505.38
2022-11-21T14:44:44.506Z,98496.00
2022-11-21T14:47:24.713Z,98480.56
2022-11-21T14:49:54.890Z,98466.78
2022-11-21T14:52:27.053Z,98459.16
2022-11-21T14:57:45.809Z,98445.44
2022-11-21T15:00:43.259Z,98441.19
2022-11-21T15:03:05.605Z,98428.34
2022-11-21T15:06:00.836Z,98417.19
2022-11-21T15:11:12.445Z,98406.94
2022-11-21T15:14:06.529Z,98402.69
2022-11-21T15:16:30.575Z,98392.41
2022-11-21T15:18:58.159Z,98388.97
2022-11-21T15:21:25.921Z,98376.09
2022-11-21T15:23:56.482Z,98370.09
2022-11-21T15:26:30.319Z,98370.06
2022-11-21T15:28:59.748Z,98362.31
2022-11-21T15:31:27.884Z,98352.91
2022-11-21T15:37:04.427Z,98328.00
2022-11-21T15:39:33.227Z,98329.69
2022-11-21T15:42:28.867Z,98312.53
2022-11-21T15:45:01.369Z,98305.66
2022-11-21T15:47:29.533Z,98298.78
2022-11-21T15:49:58.680Z,98303.91
2022-11-21T15:52:26.298Z,98306.41
2022-11-21T15:54:53.959Z,98296.13
2022-11-21T15:57:22.081Z,98302.06
2022-11-21T15:59:50.103Z,98290.06
2022-11-21T16:02:18.107Z,98275.47
2022-11-21T16:04:45.739Z,98273.72
2022-11-21T16:07:14.721Z,98256.56
2022-11-21T16:09:44.738Z,98262.50
2022-11-21T16:12:12.405Z,98259.91
2022-11-21T16:14:40.023Z,98255.53
2022-11-21T16:17:07.671Z,98244.34
2022-11-21T16:19:35.338Z,98236.63
2022-11-21T16:22:02.977Z,98236.59
2022-11-21T16:24:31.981Z,98229.69
2022-11-21T16:26:59.584Z,98239.88
2022-11-21T16:29:28.101Z,98238.19
2022-11-21T16:31:56.682Z,98233.03
2022-11-21T16:34:24.383Z,98226.19
2022-11-21T16:36:52.032Z,98215.03
2022-11-21T16:39:19.607Z,98210.78
2022-11-21T16:41:49.307Z,98200.50
2022-11-21T16:44:17.989Z,98185.91
2022-11-21T16:46:49.064Z,98179.88
2022-11-21T16:49:16.726Z,98176.44
2022-11-21T16:51:44.525Z,98183.22
2022-11-21T16:54:12.247Z,98177.19
2022-11-21T16:56:40.024Z,98183.97
2022-11-21T16:59:09.176Z,98185.69
2022-11-21T17:01:36.905Z,98188.19
2022-11-21T17:04:04.615Z,98193.25
2022-11-21T17:06:32.730Z,98178.75
2022-11-21T17:09:01.200Z,98168.47
2022-11-21T17:11:31.838Z,98171.00
2022-11-21T17:14:03.319Z,98187.19
2022-11-21T17:16:33.110Z,98200.78
2022-11-21T17:19:02.116Z,98205.00
2022-11-21T17:21:30.836Z,98198.19
2022-11-21T17:23:59.124Z,98192.19
2022-11-21T17:26:28.608Z,98184.44
2022-11-21T17:28:58.059Z,98172.50
2022-11-21T17:31:26.067Z,98160.50
2022-11-21T17:33:57.007Z,98165.59
2022-11-21T17:36:26.801Z,98168.06
2022-11-21T17:38:55.341Z,98164.59
2022-11-21T17:41:24.874Z,98150.94
2022-11-21T17:43:55.796Z,98142.41
2022-11-21T17:46:25.361Z,98131.31
2022-11-21T17:48:58.069Z,98133.84
2022-11-21T17:51:28.733Z,98131.25
2022-11-21T17:53:56.453Z,98116.75
2022-11-21T17:56:26.685Z,98111.69
2022-11-21T17:58:54.289Z,98105.78
2022-11-21T18:01:23.210Z,98098.16
2022-11-21T18:03:57.647Z,98105.88
2022-11-21T18:06:26.261Z,98112.78
2022-11-21T18:08:53.931Z,98129.84
2022-11-21T18:11:22.860Z,98140.97
2022-11-21T18:13:51.100Z,98134.13
2022-11-21T18:16:20.567Z,98126.50
2022-11-21T18:18:49.728Z,98130.81
2022-11-21T18:21:20.658Z,98108.63
2022-11-21T18:23:48.658Z,98106.94
2022-11-21T18:26:19.581Z,98102.66
2022-11-21T18:28:47.507Z,98107.78
2022-11-21T18:31:17.081Z,98103.53
2022-11-21T18:33:47.011Z,98103.53
2022-11-21T18:36:14.778Z,98109.53
2022-11-21T18:38:53.475Z,98099.28
2022-11-21T18:41:25.724Z,98106.16
2022-11-21T18:43:55.110Z,98095.94
2022-11-21T18:46:24.235Z,98103.66
2022-11-21T18:49:04.297Z,98095.13
2022-11-21T18:51:33.933Z,98095.13
2022-11-21T18:54:06.542Z,98096.00
2022-11-21T18:56:34.320Z,98099.44
2022-11-21T18:59:03.279Z,98094.34
2022-11-21T19:01:31.699Z,98088.38
2022-11-21T19:04:00.078Z,98093.53
2022-11-21T19:06:29.978Z,98085.03
2022-11-21T19:08:59.265Z,98085.03
2022-11-21T19:11:30.272Z,98079.91
2022-11-21T19:13:59.197Z,98079.06
2022-11-21T19:16:33.775Z,98079.06
2022-11-21T19:21:48.971Z,98075.69
2022-11-21T19:24:16.700Z,98071.59
2022-11-21T19:26:45.703Z,98073.25
2022-11-21T19:29:13.315Z,98069.00
2022-11-21T19:31:45.146Z,98060.44
2022-11-21T19:34:13.666Z,98061.28
2022-11-21T19:36:41.697Z,98060.44
2022-11-21T19:39:09.878Z,98067.28
2022-11-21T19:41:38.206Z,98069.84
2022-11-21T19:44:07.276Z,98074.16
2022-11-21T19:46:36.964Z,98070.75
2022-11-21T19:49:05.579Z,98074.16
2022-11-21T19:51:34.867Z,98065.59
2022-11-21T19:54:02.824Z,98056.19
2022-11-21T19:56:30.594Z,98043.41
2022-11-21T19:58:58.955Z,98046.84
2022-11-21T20:01:29.992Z,98062.22
2022-11-21T20:03:59.433Z,98078.44
2022-11-21T20:06:29.156Z,98078.44
2022-11-21T20:08:58.606Z,98076.72
2022-11-21T20:11:28.078Z,98083.56
2022-11-21T20:13:56.024Z,98092.09
2022-11-21T20:16:25.562Z,98081.00
2022-11-21T20:18:56.949Z,98081.81
2022-11-21T20:21:24.950Z,98071.56
2022-11-21T20:23:52.995Z,98053.63
2022-11-21T20:26:22.139Z,98051.94
2022-11-21T20:28:50.416Z,98044.25
2022-11-21T20:31:20.424Z,98046.81
2022-11-21T20:33:49.973Z,98046.00
2022-11-21T20:36:20.767Z,98055.38
2022-11-21T20:38:50.973Z,98063.06
2022-11-21T20:41:18.585Z,98064.75
2022-11-21T20:44:34.682Z,98058.78
2022-11-21T20:46:35.167Z,98051.94
2022-11-21T20:49:02.996Z,98059.66
2022-11-21T20:52:56.031Z,98044.25
2022-11-21T20:54:19.608Z,98043.41
2022-11-21T20:56:47.182Z,98045.13
2022-11-21T20:59:14.837Z,98045.13
2022-11-21T21:01:43.410Z,98034.00
2022-11-21T21:04:12.026Z,98031.44
2022-11-21T21:06:41.013Z,98027.16
2022-11-21T21:09:08.592Z,98036.56
2022-11-21T21:11:51.354Z,98042.53
2022-11-21T21:14:20.101Z,98028.00
2022-11-21T21:16:47.723Z,98020.31
2022-11-21T21:19:15.345Z,98015.19
2022-11-21T21:21:44.314Z,98027.13
2022-11-21T21:24:12.901Z,98026.22
2022-11-21T21:26:43.593Z,98023.63
2022-11-21T21:29:12.900Z,98022.88
2022-11-21T21:31:44.056Z,98022.00
2022-11-21T21:34:17.747Z,98012.63
2022-11-21T21:36:46.862Z,98010.06
2022-11-21T21:39:14.644Z,98022.81
2022-11-21T21:41:44.487Z,98010.88
2022-11-21T21:44:12.978Z,98010.00
2022-11-21T21:46:40.665Z,98010.84
2022-11-21T21:49:08.282Z,98013.34
2022-11-21T21:51:36.970Z,98013.34
2022-11-21T21:54:07.257Z,98014.16
2022-11-21T21:56:34.960Z,98013.25
2022-11-21T21:59:02.662Z,98003.78
2022-11-21T22:01:32.036Z,98003.69
2022-11-21T22:04:01.425Z,98003.69
2022-11-21T22:06:29.725Z,98007.16
2022-11-21T22:08:57.502Z,98005.44
2022-11-21T22:11:27.942Z,98001.19
2022-11-21T22:13:57.430Z,97995.19
2022-11-21T22:16:25.670Z,97994.38
2022-11-21T22:18:53.907Z,97996.09
2022-11-21T22:21:23.717Z,97996.09
2022-11-21T22:26:41.377Z,98000.41
2022-11-21T22:29:09.174Z,97987.66
2022-11-21T22:31:37.352Z,97985.97
2022-11-21T22:34:05.012Z,97984.28
2022-11-21T22:36:32.799Z,97977.47
2022-11-21T22:39:00.422Z,97979.19
2022-11-21T22:41:28.694Z,97976.63
2022-11-21T22:43:59.357Z,97973.22
2022-11-21T22:46:30.976Z,97979.19
2022-11-21T22:48:59.357Z,97970.59
2022-11-21T22:51:30.078Z,97974.84
2022-11-21T22:53:58.348Z,97970.63
2022-11-21T22:56:26.936Z,97961.22
2022-11-21T22:58:54.683Z,97952.69
2022-11-21T23:01:25.254Z,97948.47
2022-11-21T23:03:55.421Z,97959.56
2022-11-21T23:06:24.908Z,97965.56
2022-11-21T23:08:53.434Z,97968.13
2022-11-21T23:11:23.012Z,97969.81
2022-11-21T23:13:51.244Z,97971.56
2022-11-21T23:16:19.663Z,97979.22
2022-11-21T23:18:49.516Z,97967.31
2022-11-21T23:21:19.156Z,97963.06
2022-11-21T23:23:46.780Z,97969.84
2022-11-21T23:26:14.952Z,97974.97
2022-11-21T23:28:42.562Z,97966.47
2022-11-21T23:31:10.800Z,97971.56
2022-11-21T23:33:38.359Z,97977.59
2022-11-21T23:36:07.764Z,97968.19
2022-11-21T23:38:35.433Z,97974.16
2022-11-21T23:41:03.056Z,97968.19
2022-11-21T23:43:30.614Z,97970.75
2022-11-21T23:45:58.296Z,97962.19
2022-11-21T23:48:25.957Z,97970.72
2022-11-21T23:50:53.531Z,97963.06
2022-11-21T23:53:23.260Z,97956.25
2022-11-21T23:55:51.023Z,97951.13
2022-11-21T23:58:18.603Z,97944.28
